sensor_id;sensor_type;location;lat;lon;timestamp;P1;durP1;ratioP1;P2;durP2;ratioP2
10009;SDS011;5044;48.652;9.250;2022-09-21T00:01:35;4.25;;;2.10;;
10009;SDS011;5044;48.652;9.250;2022-09-21T00:04:03;2.90;;;2.17;;
10009;SDS011;5044;48.652;9.250;2022-09-21T00:06:30;4.03;;;2.28;;
10009;SDS011;5044;48.652;9.250;2022-09-21T00:09:00;4.85;;;2.90;;
10009;SDS011;5044;48.652;9.250;2022-09-21T00:11:31;6.30;;;2.60;;
10009;SDS011;5044;48.652;9.250;2022-09-21T00:14:00;3.22;;;2.10;;
10009;SDS011;5044;48.652;9.250;2022-09-21T00:16:29;7.35;;;3.78;;
10009;SDS011;5044;48.652;9.250;2022-09-21T00:18:57;7.30;;;2.75;;
10009;SDS011;5044;48.652;9.250;2022-09-21T00:21:24;5.40;;;3.03;;
10009;SDS011;5044;48.652;9.250;2022-09-21T00:23:52;6.70;;;2.67;;
10009;SDS011;5044;48.652;9.250;2022-09-21T00:26:21;4.65;;;2.83;;
10009;SDS011;5044;48.652;9.250;2022-09-21T00:28:50;5.07;;;3.17;;
10009;SDS011;5044;48.652;9.250;2022-09-21T00:31:19;4.65;;;2.97;;
10009;SDS011;5044;48.652;9.250;2022-09-21T00:33:46;5.63;;;3.38;;
10009;SDS011;5044;48.652;9.250;2022-09-21T00:36:15;5.55;;;3.45;;
10009;SDS011;5044;48.652;9.250;2022-09-21T00:38:43;6.03;;;3.17;;
10009;SDS011;5044;48.652;9.250;2022-09-21T00:41:11;6.07;;;3.72;;
10009;SDS011;5044;48.652;9.250;2022-09-21T00:43:46;5.80;;;3.42;;
10009;SDS011;5044;48.652;9.250;2022-09-21T00:46:15;7.80;;;3.50;;
10009;SDS011;5044;48.652;9.250;2022-09-21T00:48:48;5.20;;;2.63;;
10009;SDS011;5044;48.652;9.250;2022-09-21T00:51:15;3.88;;;2.85;;
10009;SDS011;5044;48.652;9.250;2022-09-21T00:53:42;3.33;;;2.50;;
10009;SDS011;5044;48.652;9.250;2022-09-21T00:56:10;3.22;;;2.47;;
10009;SDS011;5044;48.652;9.250;2022-09-21T00:58:42;8.48;;;2.88;;
10009;SDS011;5044;48.652;9.250;2022-09-21T01:01:11;5.15;;;3.30;;
10009;SDS011;5044;48.652;9.250;2022-09-21T01:03:42;5.72;;;3.60;;
10009;SDS011;5044;48.652;9.250;2022-09-21T01:06:09;5.00;;;2.60;;
10009;SDS011;5044;48.652;9.250;2022-09-21T01:08:37;4.50;;;2.83;;
10009;SDS011;5044;48.652;9.250;2022-09-21T01:11:15;2.95;;;2.60;;
10009;SDS011;5044;48.652;9.250;2022-09-21T01:13:56;4.45;;;2.13;;
10009;SDS011;5044;48.652;9.250;2022-09-21T01:16:50;5.70;;;3.03;;
10009;SDS011;5044;48.652;9.250;2022-09-21T01:19:31;7.65;;;3.42;;
10009;SDS011;5044;48.652;9.250;2022-09-21T01:22:13;4.97;;;3.35;;
10009;SDS011;5044;48.652;9.250;2022-09-21T01:24:52;10.23;;;3.65;;
10009;SDS011;5044;48.652;9.250;2022-09-21T01:27:37;5.45;;;3.85;;
10009;SDS011;5044;48.652;9.250;2022-09-21T01:30:16;7.47;;;3.03;;
10009;SDS011;5044;48.652;9.250;2022-09-21T01:32:46;5.40;;;3.30;;
10009;SDS011;5044;48.652;9.250;2022-09-21T01:35:18;6.40;;;3.00;;
10009;SDS011;5044;48.652;9.250;2022-09-21T01:37:49;5.93;;;2.80;;
10009;SDS011;5044;48.652;9.250;2022-09-21T01:40:22;5.10;;;3.10;;
10009;SDS011;5044;48.652;9.250;2022-09-21T01:42:53;5.25;;;2.72;;
10009;SDS011;5044;48.652;9.250;2022-09-21T01:45:24;8.02;;;5.07;;
10009;SDS011;5044;48.652;9.250;2022-09-21T01:47:56;6.45;;;3.45;;
10009;SDS011;5044;48.652;9.250;2022-09-21T01:50:25;5.40;;;2.67;;
10009;SDS011;5044;48.652;9.250;2022-09-21T01:53:00;6.25;;;3.00;;
10009;SDS011;5044;48.652;9.250;2022-09-21T01:55:32;8.38;;;3.17;;
10009;SDS011;5044;48.652;9.250;2022-09-21T01:58:05;8.50;;;3.13;;
10009;SDS011;5044;48.652;9.250;2022-09-21T02:00:39;7.40;;;3.78;;
10009;SDS011;5044;48.652;9.250;2022-09-21T02:03:10;5.47;;;2.90;;
10009;SDS011;5044;48.652;9.250;2022-09-21T02:08:09;6.47;;;3.22;;
10009;SDS011;5044;48.652;9.250;2022-09-21T02:10:37;6.20;;;3.00;;
10009;SDS011;5044;48.652;9.250;2022-09-21T02:15:45;4.10;;;2.72;;
10009;SDS011;5044;48.652;9.250;2022-09-21T02:18:25;5.07;;;2.17;;
10009;SDS011;5044;48.652;9.250;2022-09-21T02:21:03;4.00;;;2.72;;
10009;SDS011;5044;48.652;9.250;2022-09-21T02:23:41;4.35;;;2.60;;
10009;SDS011;5044;48.652;9.250;2022-09-21T02:26:14;6.13;;;3.40;;
10009;SDS011;5044;48.652;9.250;2022-09-21T02:28:48;6.10;;;2.50;;
10009;SDS011;5044;48.652;9.250;2022-09-21T02:31:25;5.10;;;2.47;;
10009;SDS011;5044;48.652;9.250;2022-09-21T02:33:57;5.68;;;2.70;;
10009;SDS011;5044;48.652;9.250;2022-09-21T02:36:30;5.22;;;2.47;;
10009;SDS011;5044;48.652;9.250;2022-09-21T02:39:04;5.25;;;2.30;;
10009;SDS011;5044;48.652;9.250;2022-09-21T02:41:37;4.50;;;2.97;;
10009;SDS011;5044;48.652;9.250;2022-09-21T02:44:10;3.97;;;2.70;;
10009;SDS011;5044;48.652;9.250;2022-09-21T02:46:45;3.78;;;2.55;;
10009;SDS011;5044;48.652;9.250;2022-09-21T02:49:18;3.78;;;2.30;;
10009;SDS011;5044;48.652;9.250;2022-09-21T02:51:49;5.30;;;3.30;;
10009;SDS011;5044;48.652;9.250;2022-09-21T02:54:18;6.05;;;2.78;;
10009;SDS011;5044;48.652;9.250;2022-09-21T02:56:49;8.07;;;3.78;;
10009;SDS011;5044;48.652;9.250;2022-09-21T02:59:18;5.13;;;2.95;;
10009;SDS011;5044;48.652;9.250;2022-09-21T03:01:47;6.00;;;2.92;;
10009;SDS011;5044;48.652;9.250;2022-09-21T03:04:15;5.80;;;2.65;;
10009;SDS011;5044;48.652;9.250;2022-09-21T03:06:42;4.88;;;3.53;;
10009;SDS011;5044;48.652;9.250;2022-09-21T03:09:09;4.50;;;2.80;;
10009;SDS011;5044;48.652;9.250;2022-09-21T03:11:36;4.88;;;3.20;;
10009;SDS011;5044;48.652;9.250;2022-09-21T03:14:03;5.60;;;2.58;;
10009;SDS011;5044;48.652;9.250;2022-09-21T03:16:32;4.03;;;2.95;;
10009;SDS011;5044;48.652;9.250;2022-09-21T03:19:00;4.18;;;2.63;;
10009;SDS011;5044;48.652;9.250;2022-09-21T03:21:27;5.40;;;2.80;;
10009;SDS011;5044;48.652;9.250;2022-09-21T03:23:54;5.70;;;3.28;;
10009;SDS011;5044;48.652;9.250;2022-09-21T03:26:21;5.45;;;2.88;;
10009;SDS011;5044;48.652;9.250;2022-09-21T03:28:48;5.22;;;3.45;;
10009;SDS011;5044;48.652;9.250;2022-09-21T03:31:17;6.90;;;3.05;;
10009;SDS011;5044;48.652;9.250;2022-09-21T03:33:44;4.50;;;2.53;;
10009;SDS011;5044;48.652;9.250;2022-09-21T03:36:13;4.35;;;3.00;;
10009;SDS011;5044;48.652;9.250;2022-09-21T03:38:40;6.72;;;3.58;;
10009;SDS011;5044;48.652;9.250;2022-09-21T03:41:07;7.20;;;3.08;;
10009;SDS011;5044;48.652;9.250;2022-09-21T03:43:34;5.00;;;2.55;;
10009;SDS011;5044;48.652;9.250;2022-09-21T03:46:01;11.10;;;3.03;;
10009;SDS011;5044;48.652;9.250;2022-09-21T03:48:28;11.43;;;2.63;;
10009;SDS011;5044;48.652;9.250;2022-09-21T03:50:56;3.90;;;2.67;;
10009;SDS011;5044;48.652;9.250;2022-09-21T03:53:25;5.18;;;2.33;;
10009;SDS011;5044;48.652;9.250;2022-09-21T03:55:51;2.70;;;2.17;;
10009;SDS011;5044;48.652;9.250;2022-09-21T03:58:18;5.10;;;2.25;;
10009;SDS011;5044;48.652;9.250;2022-09-21T04:00:46;3.58;;;2.22;;
10009;SDS011;5044;48.652;9.250;2022-09-21T04:03:12;2.80;;;2.00;;
10009;SDS011;5044;48.652;9.250;2022-09-21T04:05:39;4.95;;;3.00;;
10009;SDS011;5044;48.652;9.250;2022-09-21T04:08:06;3.88;;;2.10;;
10009;SDS011;5044;48.652;9.250;2022-09-21T04:10:35;5.68;;;3.00;;
10009;SDS011;5044;48.652;9.250;2022-09-21T04:13:06;4.82;;;3.20;;
10009;SDS011;5044;48.652;9.250;2022-09-21T04:15:33;4.72;;;2.67;;
10009;SDS011;5044;48.652;9.250;2022-09-21T04:18:00;10.65;;;4.28;;
10009;SDS011;5044;48.652;9.250;2022-09-21T04:20:27;7.00;;;4.07;;
10009;SDS011;5044;48.652;9.250;2022-09-21T04:22:54;7.55;;;5.65;;
10009;SDS011;5044;48.652;9.250;2022-09-21T04:25:22;6.00;;;3.78;;
10009;SDS011;5044;48.652;9.250;2022-09-21T04:27:50;7.00;;;3.78;;
10009;SDS011;5044;48.652;9.250;2022-09-21T04:30:17;5.85;;;3.88;;
10009;SDS011;5044;48.652;9.250;2022-09-21T04:32:44;6.25;;;3.72;;
10009;SDS011;5044;48.652;9.250;2022-09-21T04:35:11;7.38;;;4.18;;
10009;SDS011;5044;48.652;9.250;2022-09-21T04:37:38;12.93;;;6.22;;
10009;SDS011;5044;48.652;9.250;2022-09-21T04:40:05;10.68;;;6.20;;
10009;SDS011;5044;48.652;9.250;2022-09-21T04:42:33;10.27;;;4.95;;
10009;SDS011;5044;48.652;9.250;2022-09-21T04:45:02;10.40;;;5.68;;
10009;SDS011;5044;48.652;9.250;2022-09-21T04:47:29;9.82;;;4.60;;
10009;SDS011;5044;48.652;9.250;2022-09-21T04:49:56;13.07;;;6.35;;
10009;SDS011;5044;48.652;9.250;2022-09-21T04:52:23;8.32;;;4.68;;
10009;SDS011;5044;48.652;9.250;2022-09-21T04:54:50;10.30;;;5.25;;
10009;SDS011;5044;48.652;9.250;2022-09-21T04:57:17;7.10;;;4.82;;
10009;SDS011;5044;48.652;9.250;2022-09-21T04:59:44;6.60;;;3.85;;
10009;SDS011;5044;48.652;9.250;2022-09-21T05:02:12;6.22;;;3.75;;
10009;SDS011;5044;48.652;9.250;2022-09-21T05:04:39;5.40;;;3.17;;
10009;SDS011;5044;48.652;9.250;2022-09-21T05:07:06;10.95;;;3.42;;
10009;SDS011;5044;48.652;9.250;2022-09-21T05:09:33;17.33;;;3.72;;
10009;SDS011;5044;48.652;9.250;2022-09-21T05:12:19;10.95;;;3.80;;
10009;SDS011;5044;48.652;9.250;2022-09-21T05:14:46;11.95;;;3.88;;
10009;SDS011;5044;48.652;9.250;2022-09-21T05:17:15;12.70;;;3.70;;
10009;SDS011;5044;48.652;9.250;2022-09-21T05:19:46;7.10;;;3.80;;
10009;SDS011;5044;48.652;9.250;2022-09-21T05:22:13;7.70;;;3.90;;
10009;SDS011;5044;48.652;9.250;2022-09-21T05:24:40;11.45;;;4.10;;
10009;SDS011;5044;48.652;9.250;2022-09-21T05:27:09;6.13;;;3.50;;
10009;SDS011;5044;48.652;9.250;2022-09-21T05:29:37;6.07;;;4.15;;
10009;SDS011;5044;48.652;9.250;2022-09-21T05:32:07;14.20;;;3.85;;
10009;SDS011;5044;48.652;9.250;2022-09-21T05:34:49;19.52;;;3.65;;
10009;SDS011;5044;48.652;9.250;2022-09-21T05:37:35;7.63;;;3.35;;
10009;SDS011;5044;48.652;9.250;2022-09-21T05:40:10;11.73;;;3.72;;
10009;SDS011;5044;48.652;9.250;2022-09-21T05:42:38;6.13;;;3.50;;
10009;SDS011;5044;48.652;9.250;2022-09-21T05:45:06;6.40;;;3.50;;
10009;SDS011;5044;48.652;9.250;2022-09-21T05:47:38;5.72;;;3.03;;
10009;SDS011;5044;48.652;9.250;2022-09-21T05:50:18;4.53;;;3.33;;
10009;SDS011;5044;48.652;9.250;2022-09-21T05:53:05;5.07;;;3.50;;
10009;SDS011;5044;48.652;9.250;2022-09-21T05:55:42;8.13;;;3.42;;
10009;SDS011;5044;48.652;9.250;2022-09-21T05:58:18;5.20;;;3.00;;
10009;SDS011;5044;48.652;9.250;2022-09-21T06:00:53;5.32;;;3.33;;
10009;SDS011;5044;48.652;9.250;2022-09-21T06:03:29;4.40;;;3.30;;
10009;SDS011;5044;48.652;9.250;2022-09-21T06:06:01;4.25;;;3.38;;
10009;SDS011;5044;48.652;9.250;2022-09-21T06:08:29;7.28;;;2.80;;
10009;SDS011;5044;48.652;9.250;2022-09-21T06:10:55;5.22;;;3.25;;
10009;SDS011;5044;48.652;9.250;2022-09-21T06:13:22;5.88;;;3.53;;
10009;SDS011;5044;48.652;9.250;2022-09-21T06:15:50;7.28;;;3.35;;
10009;SDS011;5044;48.652;9.250;2022-09-21T06:18:17;5.68;;;2.92;;
10009;SDS011;5044;48.652;9.250;2022-09-21T06:20:44;10.43;;;4.72;;
10009;SDS011;5044;48.652;9.250;2022-09-21T06:23:13;6.43;;;3.25;;
10009;SDS011;5044;48.652;9.250;2022-09-21T06:25:40;6.85;;;3.33;;
10009;SDS011;5044;48.652;9.250;2022-09-21T06:28:08;6.65;;;3.30;;
10009;SDS011;5044;48.652;9.250;2022-09-21T06:30:37;6.50;;;3.83;;
10009;SDS011;5044;48.652;9.250;2022-09-21T06:33:06;5.18;;;3.38;;
10009;SDS011;5044;48.652;9.250;2022-09-21T06:35:34;6.15;;;3.47;;
10009;SDS011;5044;48.652;9.250;2022-09-21T06:38:02;7.22;;;3.97;;
10009;SDS011;5044;48.652;9.250;2022-09-21T06:40:32;4.75;;;3.22;;
10009;SDS011;5044;48.652;9.250;2022-09-21T06:43:00;7.05;;;3.55;;
10009;SDS011;5044;48.652;9.250;2022-09-21T06:45:28;7.57;;;4.57;;
10009;SDS011;5044;48.652;9.250;2022-09-21T06:47:56;7.88;;;4.10;;
10009;SDS011;5044;48.652;9.250;2022-09-21T06:50:23;8.25;;;4.80;;
10009;SDS011;5044;48.652;9.250;2022-09-21T06:52:51;5.97;;;3.78;;
10009;SDS011;5044;48.652;9.250;2022-09-21T06:55:18;7.47;;;3.70;;
10009;SDS011;5044;48.652;9.250;2022-09-21T06:57:47;5.70;;;3.22;;
10009;SDS011;5044;48.652;9.250;2022-09-21T07:00:15;7.22;;;3.58;;
10009;SDS011;5044;48.652;9.250;2022-09-21T07:02:43;5.13;;;3.17;;
10009;SDS011;5044;48.652;9.250;2022-09-21T07:05:11;5.22;;;3.50;;
10009;SDS011;5044;48.652;9.250;2022-09-21T07:07:38;8.32;;;4.45;;
10009;SDS011;5044;48.652;9.250;2022-09-21T07:10:06;6.03;;;3.97;;
10009;SDS011;5044;48.652;9.250;2022-09-21T07:12:33;6.00;;;4.20;;
10009;SDS011;5044;48.652;9.250;2022-09-21T07:15:04;7.57;;;4.20;;
10009;SDS011;5044;48.652;9.250;2022-09-21T07:17:35;8.90;;;4.43;;
10009;SDS011;5044;48.652;9.250;2022-09-21T07:20:05;9.65;;;4.35;;
10009;SDS011;5044;48.652;9.250;2022-09-21T07:22:33;7.13;;;4.80;;
10009;SDS011;5044;48.652;9.250;2022-09-21T07:25:01;10.57;;;5.60;;
10009;SDS011;5044;48.652;9.250;2022-09-21T07:27:31;11.68;;;4.00;;
10009;SDS011;5044;48.652;9.250;2022-09-21T07:30:07;11.70;;;5.50;;
10009;SDS011;5044;48.652;9.250;2022-09-21T07:32:35;8.70;;;4.38;;
10009;SDS011;5044;48.652;9.250;2022-09-21T07:35:03;5.72;;;3.90;;
10009;SDS011;5044;48.652;9.250;2022-09-21T07:37:31;8.48;;;4.60;;
10009;SDS011;5044;48.652;9.250;2022-09-21T07:40:05;5.85;;;4.50;;
10009;SDS011;5044;48.652;9.250;2022-09-21T07:42:35;10.60;;;5.15;;
10009;SDS011;5044;48.652;9.250;2022-09-21T07:47:49;6.38;;;3.60;;
10009;SDS011;5044;48.652;9.250;2022-09-21T07:50:18;5.18;;;3.53;;
10009;SDS011;5044;48.652;9.250;2022-09-21T07:52:45;5.95;;;3.83;;
10009;SDS011;5044;48.652;9.250;2022-09-21T07:55:12;5.88;;;3.55;;
10009;SDS011;5044;48.652;9.250;2022-09-21T07:57:40;4.65;;;3.13;;
10009;SDS011;5044;48.652;9.250;2022-09-21T08:00:35;6.55;;;3.72;;
10009;SDS011;5044;48.652;9.250;2022-09-21T08:03:13;5.15;;;2.97;;
10009;SDS011;5044;48.652;9.250;2022-09-21T08:05:41;5.13;;;3.05;;
10009;SDS011;5044;48.652;9.250;2022-09-21T08:08:12;4.97;;;3.47;;
10009;SDS011;5044;48.652;9.250;2022-09-21T08:10:45;3.20;;;2.67;;
10009;SDS011;5044;48.652;9.250;2022-09-21T08:13:18;4.13;;;2.67;;
10009;SDS011;5044;48.652;9.250;2022-09-21T08:15:52;4.55;;;2.35;;
10009;SDS011;5044;48.652;9.250;2022-09-21T08:18:25;3.97;;;2.20;;
10009;SDS011;5044;48.652;9.250;2022-09-21T08:20:52;2.80;;;1.80;;
10009;SDS011;5044;48.652;9.250;2022-09-21T08:23:20;3.45;;;2.20;;
10009;SDS011;5044;48.652;9.250;2022-09-21T08:25:47;2.47;;;1.70;;
10009;SDS011;5044;48.652;9.250;2022-09-21T08:28:28;3.55;;;2.38;;
10009;SDS011;5044;48.652;9.250;2022-09-21T08:31:08;3.45;;;2.30;;
10009;SDS011;5044;48.652;9.250;2022-09-21T08:33:37;3.53;;;1.60;;
10009;SDS011;5044;48.652;9.250;2022-09-21T08:36:16;2.15;;;1.60;;
10009;SDS011;5044;48.652;9.250;2022-09-21T08:38:45;2.20;;;1.58;;
10009;SDS011;5044;48.652;9.250;2022-09-21T08:41:17;2.60;;;1.55;;
10009;SDS011;5044;48.652;9.250;2022-09-21T08:43:56;1.77;;;1.42;;
10009;SDS011;5044;48.652;9.250;2022-09-21T08:46:34;3.50;;;1.65;;
10009;SDS011;5044;48.652;9.250;2022-09-21T08:49:07;2.80;;;1.45;;
10009;SDS011;5044;48.652;9.250;2022-09-21T08:51:40;2.63;;;1.70;;
10009;SDS011;5044;48.652;9.250;2022-09-21T08:54:30;2.75;;;1.60;;
10009;SDS011;5044;48.652;9.250;2022-09-21T08:59:34;4.57;;;1.60;;
10009;SDS011;5044;48.652;9.250;2022-09-21T09:02:07;2.03;;;1.40;;
10009;SDS011;5044;48.652;9.250;2022-09-21T09:04:49;3.10;;;1.58;;
10009;SDS011;5044;48.652;9.250;2022-09-21T09:07:25;2.80;;;1.60;;
10009;SDS011;5044;48.652;9.250;2022-09-21T09:10:10;3.40;;;1.30;;
10009;SDS011;5044;48.652;9.250;2022-09-21T09:12:48;4.25;;;1.63;;
10009;SDS011;5044;48.652;9.250;2022-09-21T09:15:40;2.28;;;1.60;;
10009;SDS011;5044;48.652;9.250;2022-09-21T09:18:20;5.47;;;2.40;;
10009;SDS011;5044;48.652;9.250;2022-09-21T09:20:56;2.75;;;1.70;;
10009;SDS011;5044;48.652;9.250;2022-09-21T09:23:30;2.65;;;1.00;;
10009;SDS011;5044;48.652;9.250;2022-09-21T09:26:03;4.75;;;1.30;;
10009;SDS011;5044;48.652;9.250;2022-09-21T09:28:33;2.03;;;1.00;;
10009;SDS011;5044;48.652;9.250;2022-09-21T09:31:04;2.05;;;1.02;;
10009;SDS011;5044;48.652;9.250;2022-09-21T09:33:43;2.08;;;0.95;;
10009;SDS011;5044;48.652;9.250;2022-09-21T09:36:16;1.42;;;0.90;;
10009;SDS011;5044;48.652;9.250;2022-09-21T09:38:44;2.15;;;1.30;;
10009;SDS011;5044;48.652;9.250;2022-09-21T09:44:13;2.17;;;1.08;;
10009;SDS011;5044;48.652;9.250;2022-09-21T09:46:52;2.03;;;0.70;;
10009;SDS011;5044;48.652;9.250;2022-09-21T09:49:33;2.10;;;0.93;;
10009;SDS011;5044;48.652;9.250;2022-09-21T09:52:09;1.50;;;0.90;;
10009;SDS011;5044;48.652;9.250;2022-09-21T09:54:40;1.58;;;0.70;;
10009;SDS011;5044;48.652;9.250;2022-09-21T09:57:08;3.60;;;1.17;;
10009;SDS011;5044;48.652;9.250;2022-09-21T09:59:36;4.00;;;0.98;;
10009;SDS011;5044;48.652;9.250;2022-09-21T10:02:17;3.17;;;1.33;;
10009;SDS011;5044;48.652;9.250;2022-09-21T10:04:54;3.45;;;1.55;;
10009;SDS011;5044;48.652;9.250;2022-09-21T10:07:33;4.28;;;1.13;;
10009;SDS011;5044;48.652;9.250;2022-09-21T10:10:02;1.25;;;0.90;;
10009;SDS011;5044;48.652;9.250;2022-09-21T10:12:47;1.58;;;1.13;;
10009;SDS011;5044;48.652;9.250;2022-09-21T10:15:15;3.67;;;1.20;;
10009;SDS011;5044;48.652;9.250;2022-09-21T10:17:55;1.58;;;0.90;;
10009;SDS011;5044;48.652;9.250;2022-09-21T10:20:27;1.75;;;1.23;;
10009;SDS011;5044;48.652;9.250;2022-09-21T10:22:58;1.05;;;0.70;;
10009;SDS011;5044;48.652;9.250;2022-09-21T10:25:29;3.97;;;1.10;;
10009;SDS011;5044;48.652;9.250;2022-09-21T10:27:56;2.85;;;1.05;;
10009;SDS011;5044;48.652;9.250;2022-09-21T10:30:33;1.55;;;0.80;;
10009;SDS011;5044;48.652;9.250;2022-09-21T10:33:03;1.15;;;0.70;;
10009;SDS011;5044;48.652;9.250;2022-09-21T10:35:48;3.00;;;0.60;;
10009;SDS011;5044;48.652;9.250;2022-09-21T10:38:17;2.83;;;0.80;;
10009;SDS011;5044;48.652;9.250;2022-09-21T10:40:54;3.08;;;2.47;;
10009;SDS011;5044;48.652;9.250;2022-09-21T10:43:22;1.90;;;0.60;;
10009;SDS011;5044;48.652;9.250;2022-09-21T10:45:51;2.30;;;0.70;;
10009;SDS011;5044;48.652;9.250;2022-09-21T10:48:23;1.58;;;0.57;;
10009;SDS011;5044;48.652;9.250;2022-09-21T10:50:53;1.13;;;0.40;;
10009;SDS011;5044;48.652;9.250;2022-09-21T10:53:24;2.28;;;0.57;;
10009;SDS011;5044;48.652;9.250;2022-09-21T10:55:56;0.77;;;0.50;;
10009;SDS011;5044;48.652;9.250;2022-09-21T10:58:25;0.55;;;0.40;;
10009;SDS011;5044;48.652;9.250;2022-09-21T11:00:53;1.52;;;0.70;;
10009;SDS011;5044;48.652;9.250;2022-09-21T11:03:40;1.80;;;0.57;;
10009;SDS011;5044;48.652;9.250;2022-09-21T11:06:15;1.75;;;0.50;;
10009;SDS011;5044;48.652;9.250;2022-09-21T11:08:48;1.98;;;0.55;;
10009;SDS011;5044;48.652;9.250;2022-09-21T11:11:38;1.73;;;0.60;;
10009;SDS011;5044;48.652;9.250;2022-09-21T11:14:17;1.73;;;0.50;;
10009;SDS011;5044;48.652;9.250;2022-09-21T11:19:26;3.75;;;0.68;;
10009;SDS011;5044;48.652;9.250;2022-09-21T11:22:03;2.00;;;0.47;;
10009;SDS011;5044;48.652;9.250;2022-09-21T11:24:36;5.40;;;0.60;;
10009;SDS011;5044;48.652;9.250;2022-09-21T11:27:11;1.00;;;0.30;;
10009;SDS011;5044;48.652;9.250;2022-09-21T11:29:49;1.25;;;0.40;;
10009;SDS011;5044;48.652;9.250;2022-09-21T11:32:32;6.53;;;1.42;;
10009;SDS011;5044;48.652;9.250;2022-09-21T11:35:17;1.65;;;0.40;;
10009;SDS011;5044;48.652;9.250;2022-09-21T11:38:07;3.88;;;0.77;;
10009;SDS011;5044;48.652;9.250;2022-09-21T11:41:04;1.88;;;0.45;;
10009;SDS011;5044;48.652;9.250;2022-09-21T11:43:45;1.70;;;0.40;;
10009;SDS011;5044;48.652;9.250;2022-09-21T11:46:28;2.17;;;0.32;;
10009;SDS011;5044;48.652;9.250;2022-09-21T11:49:05;3.70;;;0.40;;
10009;SDS011;5044;48.652;9.250;2022-09-21T11:51:44;0.77;;;0.50;;
10009;SDS011;5044;48.652;9.250;2022-09-21T11:54:29;1.13;;;0.40;;
10009;SDS011;5044;48.652;9.250;2022-09-21T11:57:21;0.68;;;0.30;;
10009;SDS011;5044;48.652;9.250;2022-09-21T11:59:59;0.65;;;0.55;;
10009;SDS011;5044;48.652;9.250;2022-09-21T12:05:38;0.45;;;0.30;;
10009;SDS011;5044;48.652;9.250;2022-09-21T12:08:19;0.80;;;0.70;;
10009;SDS011;5044;48.652;9.250;2022-09-21T12:11:10;1.42;;;0.40;;
10009;SDS011;5044;48.652;9.250;2022-09-21T12:13:51;3.05;;;0.50;;
10009;SDS011;5044;48.652;9.250;2022-09-21T12:16:27;1.08;;;0.50;;
10009;SDS011;5044;48.652;9.250;2022-09-21T12:19:04;1.20;;;0.50;;
10009;SDS011;5044;48.652;9.250;2022-09-21T12:21:35;1.15;;;0.70;;
10009;SDS011;5044;48.652;9.250;2022-09-21T12:24:10;1.17;;;0.43;;
10009;SDS011;5044;48.652;9.250;2022-09-21T12:26:42;1.55;;;0.28;;
10009;SDS011;5044;48.652;9.250;2022-09-21T12:29:21;0.50;;;0.32;;
10009;SDS011;5044;48.652;9.250;2022-09-21T12:31:56;0.30;;;0.28;;
10009;SDS011;5044;48.652;9.250;2022-09-21T12:34:29;1.58;;;0.40;;
10009;SDS011;5044;48.652;9.250;2022-09-21T12:37:07;1.08;;;0.30;;
10009;SDS011;5044;48.652;9.250;2022-09-21T12:39:44;1.13;;;0.50;;
10009;SDS011;5044;48.652;9.250;2022-09-21T12:42:34;1.23;;;0.50;;
10009;SDS011;5044;48.652;9.250;2022-09-21T12:45:11;0.52;;;0.35;;
10009;SDS011;5044;48.652;9.250;2022-09-21T12:47:48;2.10;;;0.60;;
10009;SDS011;5044;48.652;9.250;2022-09-21T12:50:24;10.43;;;0.90;;
10009;SDS011;5044;48.652;9.250;2022-09-21T12:52:56;0.80;;;0.43;;
10009;SDS011;5044;48.652;9.250;2022-09-21T12:55:32;2.60;;;0.63;;
10009;SDS011;5044;48.652;9.250;2022-09-21T12:58:15;1.60;;;0.63;;
10009;SDS011;5044;48.652;9.250;2022-09-21T13:00:58;1.05;;;0.50;;
10009;SDS011;5044;48.652;9.250;2022-09-21T13:03:31;1.02;;;0.50;;
10009;SDS011;5044;48.652;9.250;2022-09-21T13:06:14;1.60;;;0.50;;
10009;SDS011;5044;48.652;9.250;2022-09-21T13:09:03;1.38;;;0.60;;
10009;SDS011;5044;48.652;9.250;2022-09-21T13:11:31;2.05;;;0.50;;
10009;SDS011;5044;48.652;9.250;2022-09-21T13:14:01;1.27;;;0.65;;
10009;SDS011;5044;48.652;9.250;2022-09-21T13:16:30;1.17;;;0.47;;
10009;SDS011;5044;48.652;9.250;2022-09-21T13:19:03;1.33;;;0.63;;
10009;SDS011;5044;48.652;9.250;2022-09-21T13:21:32;1.33;;;0.70;;
10009;SDS011;5044;48.652;9.250;2022-09-21T13:23:59;1.02;;;0.60;;
10009;SDS011;5044;48.652;9.250;2022-09-21T13:26:28;0.60;;;0.38;;
10009;SDS011;5044;48.652;9.250;2022-09-21T13:32:06;1.17;;;0.50;;
10009;SDS011;5044;48.652;9.250;2022-09-21T13:34:47;0.43;;;0.43;;
10009;SDS011;5044;48.652;9.250;2022-09-21T13:37:25;1.73;;;0.55;;
10009;SDS011;5044;48.652;9.250;2022-09-21T13:49:21;1.55;;;0.85;;
10009;SDS011;5044;48.652;9.250;2022-09-21T13:52:04;0.32;;;0.30;;
10009;SDS011;5044;48.652;9.250;2022-09-21T13:54:45;1.65;;;1.20;;
10009;SDS011;5044;48.652;9.250;2022-09-21T13:57:17;0.57;;;0.40;;
10009;SDS011;5044;48.652;9.250;2022-09-21T13:59:47;1.63;;;0.53;;
10009;SDS011;5044;48.652;9.250;2022-09-21T14:02:31;1.00;;;0.30;;
10009;SDS011;5044;48.652;9.250;2022-09-21T14:05:03;0.40;;;0.30;;
10009;SDS011;5044;48.652;9.250;2022-09-21T14:07:36;0.50;;;0.40;;
10009;SDS011;5044;48.652;9.250;2022-09-21T14:10:06;0.70;;;0.22;;
10009;SDS011;5044;48.652;9.250;2022-09-21T14:12:38;0.38;;;0.32;;
10009;SDS011;5044;48.652;9.250;2022-09-21T14:18:17;2.72;;;0.60;;
10009;SDS011;5044;48.652;9.250;2022-09-21T14:21:18;1.52;;;0.63;;
10009;SDS011;5044;48.652;9.250;2022-09-21T14:26:59;0.47;;;0.40;;
10009;SDS011;5044;48.652;9.250;2022-09-21T14:29:38;0.82;;;0.40;;
10009;SDS011;5044;48.652;9.250;2022-09-21T14:32:14;2.33;;;0.50;;
10009;SDS011;5044;48.652;9.250;2022-09-21T14:34:48;0.45;;;0.32;;
10009;SDS011;5044;48.652;9.250;2022-09-21T14:37:26;0.50;;;0.40;;
10009;SDS011;5044;48.652;9.250;2022-09-21T14:39:58;1.00;;;0.50;;
10009;SDS011;5044;48.652;9.250;2022-09-21T14:42:30;0.50;;;0.40;;
10009;SDS011;5044;48.652;9.250;2022-09-21T14:44:58;0.68;;;0.40;;
10009;SDS011;5044;48.652;9.250;2022-09-21T14:47:34;1.65;;;0.65;;
10009;SDS011;5044;48.652;9.250;2022-09-21T14:50:26;0.52;;;0.50;;
10009;SDS011;5044;48.652;9.250;2022-09-21T14:53:18;0.88;;;0.60;;
10009;SDS011;5044;48.652;9.250;2022-09-21T14:59:02;1.27;;;0.50;;
10009;SDS011;5044;48.652;9.250;2022-09-21T15:01:39;1.20;;;0.40;;
10009;SDS011;5044;48.652;9.250;2022-09-21T15:04:30;0.30;;;0.30;;
10009;SDS011;5044;48.652;9.250;2022-09-21T15:07:11;1.15;;;0.45;;
10009;SDS011;5044;48.652;9.250;2022-09-21T15:10:17;0.47;;;0.45;;
10009;SDS011;5044;48.652;9.250;2022-09-21T15:16:10;0.85;;;0.57;;
10009;SDS011;5044;48.652;9.250;2022-09-21T15:18:44;0.45;;;0.40;;
10009;SDS011;5044;48.652;9.250;2022-09-21T15:21:19;0.60;;;0.47;;
10009;SDS011;5044;48.652;9.250;2022-09-21T15:23:50;1.65;;;0.60;;
10009;SDS011;5044;48.652;9.250;2022-09-21T15:26:21;0.63;;;0.63;;
10009;SDS011;5044;48.652;9.250;2022-09-21T15:28:53;1.17;;;0.63;;
10009;SDS011;5044;48.652;9.250;2022-09-21T15:31:22;1.38;;;0.50;;
10009;SDS011;5044;48.652;9.250;2022-09-21T15:33:50;2.03;;;0.40;;
10009;SDS011;5044;48.652;9.250;2022-09-21T15:36:19;0.68;;;0.55;;
10009;SDS011;5044;48.652;9.250;2022-09-21T15:38:48;0.30;;;0.30;;
10009;SDS011;5044;48.652;9.250;2022-09-21T15:44:11;4.40;;;0.75;;
10009;SDS011;5044;48.652;9.250;2022-09-21T15:46:40;0.30;;;0.30;;
10009;SDS011;5044;48.652;9.250;2022-09-21T15:49:11;0.85;;;0.52;;
10009;SDS011;5044;48.652;9.250;2022-09-21T15:51:41;2.55;;;0.40;;
10009;SDS011;5044;48.652;9.250;2022-09-21T15:56:57;0.95;;;0.68;;
10009;SDS011;5044;48.652;9.250;2022-09-21T15:59:27;2.15;;;0.50;;
10009;SDS011;5044;48.652;9.250;2022-09-21T16:01:55;0.75;;;0.52;;
10009;SDS011;5044;48.652;9.250;2022-09-21T16:04:25;1.30;;;0.50;;
10009;SDS011;5044;48.652;9.250;2022-09-21T16:06:56;0.85;;;0.47;;
10009;SDS011;5044;48.652;9.250;2022-09-21T16:09:27;2.75;;;0.40;;
10009;SDS011;5044;48.652;9.250;2022-09-21T16:12:30;2.33;;;0.55;;
10009;SDS011;5044;48.652;9.250;2022-09-21T16:15:16;1.60;;;0.40;;
10009;SDS011;5044;48.652;9.250;2022-09-21T16:17:56;0.43;;;0.43;;
10009;SDS011;5044;48.652;9.250;2022-09-21T16:20:37;0.50;;;0.40;;
10009;SDS011;5044;48.652;9.250;2022-09-21T16:23:10;0.82;;;0.52;;
10009;SDS011;5044;48.652;9.250;2022-09-21T16:25:39;0.80;;;0.60;;